Time;durP1;ratioP1;P1;durP2;ratioP2;P2;SDS_P1;SDS_P2;PMS_P1;PMS_P2;Temp;Humidity;BMP_temperature;BMP_pressure;BME280_temperature;BME280_humidity;BME280_pressure;Samples;Min_cycle;Max_cycle;Signal;HPM_P1;HPM_P2
2022/03/05 00:00:38;;;;;;;19.73;10.93;;;2.20;76.90;;;;;;2063935;28;20042;-84
2022/03/05 00:01:38;;;;;;;21.77;11.43;;;2.20;77.00;;;;;;2062972;28;20411;-84
2022/03/05 00:02:39;;;;;;;26.35;12.20;;;2.20;77.70;;;;;;2058820;28;20400;-84
2022/03/05 00:03:40;;;;;;;21.00;11.27;;;2.20;77.20;;;;;;2055858;28;20057;-84
2022/03/05 00:04:40;;;;;;;20.85;11.65;;;2.20;77.20;;;;;;2061633;28;20172;-83
2022/03/05 00:05:41;;;;;;;20.52;11.07;;;2.10;77.10;;;;;;2055301;28;20071;-84
2022/03/05 00:06:42;;;;;;;20.95;11.27;;;2.10;77.20;;;;;;2060801;28;20489;-84
2022/03/05 00:07:42;;;;;;;20.42;10.98;;;2.10;77.20;;;;;;2059700;28;20038;-84
2022/03/05 00:08:43;;;;;;;20.50;11.20;;;2.10;77.30;;;;;;2062556;28;20042;-84
2022/03/05 00:09:44;;;;;;;18.17;10.68;;;2.10;77.20;;;;;;2056689;28;20433;-84
2022/03/05 00:10:44;;;;;;;22.05;11.95;;;2.10;77.20;;;;;;2047324;28;20413;-84
2022/03/05 00:11:45;;;;;;;20.02;10.52;;;2.10;77.30;;;;;;2050258;28;20039;-84
2022/03/05 00:12:46;;;;;;;19.95;11.02;;;2.10;77.40;;;;;;2062196;28;20549;-84
2022/03/05 00:13:46;;;;;;;20.77;10.82;;;2.10;77.40;;;;;;2055073;28;20043;-84
2022/03/05 00:14:47;;;;;;;19.48;10.98;;;2.00;77.40;;;;;;2054002;28;20065;-83
2022/03/05 00:15:48;;;;;;;20.35;11.10;;;2.00;77.40;;;;;;2063034;28;20510;-84
2022/03/05 00:16:48;;;;;;;18.65;9.93;;;2.00;77.40;;;;;;2078066;28;20041;-84
2022/03/05 00:17:49;;;;;;;22.35;11.27;;;2.00;77.50;;;;;;2063418;28;20039;-84
2022/03/05 00:18:50;;;;;;;18.48;10.63;;;2.00;77.60;;;;;;2063795;28;20035;-84
2022/03/05 00:19:50;;;;;;;18.65;10.25;;;2.00;77.50;;;;;;2063686;28;20034;-83
2022/03/05 00:20:53;;;;;;;20.30;11.27;;;2.00;77.50;;;;;;2063616;28;20037;-84
2022/03/05 00:21:54;;;;;;;19.30;10.88;;;2.00;77.60;;;;;;2074808;28;20046;-84
2022/03/05 00:22:55;;;;;;;22.48;12.05;;;2.00;78.30;;;;;;2055089;28;20485;-84
2022/03/05 00:23:55;;;;;;;21.33;11.27;;;1.90;77.70;;;;;;2057222;28;20133;-84
2022/03/05 00:24:56;;;;;;;20.77;10.70;;;2.00;77.80;;;;;;2063208;28;20042;-84
2022/03/05 00:25:58;;;;;;;20.35;10.75;;;1.90;77.80;;;;;;2064762;28;20096;-84
2022/03/05 00:26:58;;;;;;;18.33;10.30;;;1.90;77.80;;;;;;2058722;28;20042;-84
2022/03/05 00:27:59;;;;;;;19.83;10.32;;;1.90;77.80;;;;;;2069247;28;20042;-84
2022/03/05 00:28:59;;;;;;;21.27;11.43;;;1.90;77.80;;;;;;2087965;28;20129;-84
2022/03/05 00:30:01;;;;;;;19.88;10.75;;;1.90;78.00;;;;;;2064801;28;20050;-84
2022/03/05 00:31:01;;;;;;;17.02;9.85;;;1.90;78.00;;;;;;2064835;28;20034;-84
2022/03/05 00:32:03;;;;;;;17.67;10.27;;;1.90;78.00;;;;;;2073354;28;20049;-84
2022/03/05 00:33:03;;;;;;;19.52;10.98;;;1.80;78.00;;;;;;2073374;28;20094;-84
2022/03/05 00:34:04;;;;;;;18.35;10.57;;;1.90;78.00;;;;;;2073501;28;20084;-84
2022/03/05 00:35:06;;;;;;;18.27;10.23;;;1.80;78.00;;;;;;2061614;28;20438;-83
2022/03/05 00:36:07;;;;;;;18.33;10.10;;;1.80;78.10;;;;;;2056628;28;20034;-83
2022/03/05 00:37:08;;;;;;;20.23;10.02;;;1.80;78.10;;;;;;2063047;28;20091;-84
2022/03/05 00:38:11;;;;;;;20.27;10.80;;;1.80;78.10;;;;;;2063283;28;20046;-84
2022/03/05 00:39:12;;;;;;;20.52;10.50;;;1.80;78.10;;;;;;2064652;28;20042;-84
2022/03/05 00:40:12;;;;;;;19.23;10.68;;;1.80;78.10;;;;;;2060817;28;20173;-84
2022/03/05 00:41:13;;;;;;;19.80;10.52;;;1.80;78.20;;;;;;2056572;28;20039;-84
2022/03/05 00:42:14;;;;;;;20.00;10.63;;;1.80;78.20;;;;;;2048585;28;20134;-84
2022/03/05 00:43:14;;;;;;;22.02;11.80;;;1.80;78.80;;;;;;2056494;28;20030;-83
2022/03/05 00:44:15;;;;;;;19.42;10.68;;;1.80;78.30;;;;;;2048486;28;20050;-84
2022/03/05 00:45:16;;;;;;;18.20;10.55;;;1.70;78.20;;;;;;2048290;28;20063;-84
2022/03/05 00:46:16;;;;;;;20.58;11.25;;;1.80;78.30;;;;;;2060265;28;20481;-84
2022/03/05 00:47:17;;;;;;;16.77;9.70;;;1.70;78.30;;;;;;2056669;28;20047;-84
2022/03/05 00:48:18;;;;;;;20.20;11.27;;;1.70;78.40;;;;;;2056453;28;20089;-84
2022/03/05 00:49:19;;;;;;;18.02;10.20;;;1.70;78.40;;;;;;2057251;28;20089;-84
2022/03/05 00:50:20;;;;;;;20.33;11.05;;;1.70;78.40;;;;;;2060469;28;20476;-84
2022/03/05 00:51:21;;;;;;;22.35;12.20;;;1.70;78.50;;;;;;2056495;28;20031;-84
2022/03/05 00:52:22;;;;;;;23.50;12.30;;;1.70;78.60;;;;;;2056560;28;20070;-83
2022/03/05 00:53:22;;;;;;;24.77;12.88;;;1.60;78.60;;;;;;2064328;28;20037;-83
2022/03/05 00:54:23;;;;;;;21.25;11.10;;;1.60;78.70;;;;;;2056456;28;20039;-83
2022/03/05 00:55:24;;;;;;;21.13;11.55;;;1.60;78.70;;;;;;2056515;28;20085;-83
2022/03/05 00:56:25;;;;;;;21.90;11.07;;;1.60;78.70;;;;;;2088807;28;20072;-83
2022/03/05 00:57:25;;;;;;;20.55;10.60;;;1.60;78.80;;;;;;2097140;28;20375;-83
2022/03/05 00:58:26;;;;;;;19.67;10.77;;;1.60;78.80;;;;;;2064552;28;20058;-84
2022/03/05 00:59:27;;;;;;;18.83;10.40;;;1.60;78.80;;;;;;2055505;28;20069;-83
2022/03/05 01:00:27;;;;;;;21.65;11.57;;;1.60;78.80;;;;;;2040500;28;20039;-84
2022/03/05 01:01:28;;;;;;;21.23;11.73;;;1.60;78.90;;;;;;2048512;28;20046;-83
2022/03/05 01:02:30;;;;;;;21.00;11.55;;;1.50;78.80;;;;;;2056438;28;20031;-84
2022/03/05 01:03:31;;;;;;;19.98;11.05;;;1.60;79.00;;;;;;2057020;28;20146;-84
2022/03/05 01:04:32;;;;;;;23.60;12.07;;;1.60;79.00;;;;;;2065017;28;20031;-84
2022/03/05 01:05:33;;;;;;;21.10;11.05;;;1.50;79.00;;;;;;2065116;28;20408;-84
2022/03/05 01:06:34;;;;;;;23.25;12.38;;;1.50;79.00;;;;;;2070422;28;20036;-83
2022/03/05 01:07:34;;;;;;;20.70;11.20;;;1.50;79.00;;;;;;2055107;28;20048;-83
2022/03/05 01:08:35;;;;;;;21.02;11.30;;;1.50;79.00;;;;;;2051197;28;20374;-84
2022/03/05 01:09:36;;;;;;;21.23;10.93;;;1.50;79.10;;;;;;2056038;28;20404;-84
2022/03/05 01:10:36;;;;;;;21.95;11.88;;;1.50;79.10;;;;;;2054646;28;20492;-83
2022/03/05 01:11:37;;;;;;;22.35;11.68;;;1.50;79.20;;;;;;2063624;28;20547;-84
2022/03/05 01:12:38;;;;;;;25.67;12.10;;;1.50;79.20;;;;;;2056302;28;20050;-84
2022/03/05 01:13:38;;;;;;;21.58;11.10;;;1.50;79.20;;;;;;2056400;28;20481;-84
2022/03/05 01:14:39;;;;;;;20.02;10.25;;;1.40;79.20;;;;;;2063326;28;20046;-83
2022/03/05 01:15:40;;;;;;;20.75;10.68;;;1.40;79.20;;;;;;2058395;28;20030;-84
2022/03/05 01:16:40;;;;;;;19.20;11.10;;;1.40;79.20;;;;;;2060711;28;20145;-83
2022/03/05 01:17:41;;;;;;;19.67;11.05;;;1.40;79.30;;;;;;2064957;28;20031;-83
2022/03/05 01:18:42;;;;;;;19.15;10.38;;;1.40;79.30;;;;;;2088923;28;20130;-83
2022/03/05 01:19:42;;;;;;;19.98;10.50;;;1.40;79.30;;;;;;2064720;28;20454;-83
2022/03/05 01:20:43;;;;;;;17.55;10.32;;;1.40;79.30;;;;;;2063365;28;20043;-83
2022/03/05 01:21:44;;;;;;;20.40;11.23;;;1.40;79.40;;;;;;2048435;28;20566;-83
2022/03/05 01:22:45;;;;;;;21.42;11.43;;;1.40;79.40;;;;;;2048210;28;20060;-84
2022/03/05 01:23:45;;;;;;;18.02;10.15;;;1.40;79.40;;;;;;2069574;28;20141;-84
2022/03/05 01:24:46;;;;;;;21.35;11.05;;;1.40;79.40;;;;;;2098383;28;20044;-84
2022/03/05 01:25:46;;;;;;;20.08;11.05;;;1.40;79.40;;;;;;2081932;28;20056;-83
2022/03/05 01:26:47;;;;;;;20.67;11.10;;;1.40;79.40;;;;;;2055820;28;20043;-84
2022/03/05 01:27:48;;;;;;;19.55;11.15;;;1.40;79.40;;;;;;2048326;28;20043;-84
2022/03/05 01:28:48;;;;;;;20.58;10.70;;;1.40;79.50;;;;;;2049102;28;20071;-84
2022/03/05 01:29:50;;;;;;;21.73;11.05;;;1.40;79.50;;;;;;2056367;28;20038;-84
2022/03/05 01:30:51;;;;;;;20.33;11.20;;;1.40;79.60;;;;;;2056057;28;20110;-84
2022/03/05 01:31:51;;;;;;;23.60;12.25;;;1.30;79.60;;;;;;2056648;28;20039;-84
2022/03/05 01:32:52;;;;;;;21.27;11.73;;;1.30;79.60;;;;;;2055289;28;20406;-83
2022/03/05 01:33:52;;;;;;;21.98;11.15;;;1.40;79.70;;;;;;2064357;28;20034;-84
2022/03/05 01:34:53;;;;;;;21.35;11.07;;;1.30;79.70;;;;;;2056671;28;20136;-84
2022/03/05 01:35:54;;;;;;;19.60;10.60;;;1.30;79.70;;;;;;2057045;28;20508;-83
2022/03/05 01:36:54;;;;;;;20.75;10.93;;;1.30;79.70;;;;;;2066674;28;20046;-84
2022/03/05 01:37:56;;;;;;;20.40;11.38;;;1.30;79.80;;;;;;2063160;28;20104;-84
2022/03/05 01:38:56;;;;;;;20.10;11.00;;;1.30;79.80;;;;;;2063810;28;20042;-84
2022/03/05 01:39:57;;;;;;;22.90;11.77;;;1.30;79.80;;;;;;2056034;28;20043;-83
2022/03/05 01:40:58;;;;;;;21.67;11.70;;;1.30;79.80;;;;;;2079839;28;20038;-84
2022/03/05 01:41:58;;;;;;;19.23;11.15;;;1.30;79.80;;;;;;2089086;28;20068;-84
2022/03/05 01:42:59;;;;;;;25.55;13.30;;;1.30;79.90;;;;;;2064860;28;20121;-83
2022/03/05 01:44:00;;;;;;;21.55;11.35;;;1.20;79.90;;;;;;2076491;28;20029;-84
2022/03/05 01:45:00;;;;;;;24.33;11.95;;;1.30;80.00;;;;;;2064076;28;20038;-84
2022/03/05 01:46:01;;;;;;;21.70;11.25;;;1.30;80.00;;;;;;2056025;28;20391;-84
2022/03/05 01:47:03;;;;;;;21.50;11.25;;;1.30;80.00;;;;;;2065209;28;20046;-84
2022/03/05 01:48:05;;;;;;;21.63;10.90;;;1.30;80.00;;;;;;2062355;28;20111;-84
2022/03/05 01:49:08;;;;;;;22.90;11.05;;;1.20;80.00;;;;;;2065078;28;20129;-84
2022/03/05 01:50:09;;;;;;;20.60;11.32;;;1.20;80.10;;;;;;2063943;28;20035;-84
2022/03/05 01:51:10;;;;;;;20.60;10.73;;;1.20;80.10;;;;;;2055685;28;20042;-83
2022/03/05 01:52:11;;;;;;;21.60;11.73;;;1.20;80.10;;;;;;2056132;28;20101;-84
2022/03/05 01:53:12;;;;;;;22.35;11.32;;;1.20;80.10;;;;;;2064665;28;20035;-83
2022/03/05 01:54:13;;;;;;;21.38;11.07;;;1.20;80.20;;;;;;2069425;28;20040;-84
2022/03/05 01:55:15;;;;;;;20.15;11.32;;;1.20;80.20;;;;;;2063377;28;20030;-83
2022/03/05 01:56:16;;;;;;;22.27;11.15;;;1.20;80.20;;;;;;2062761;28;20031;-83
2022/03/05 01:57:17;;;;;;;20.40;10.88;;;1.20;80.20;;;;;;2064252;28;20084;-84
2022/03/05 01:58:18;;;;;;;21.98;11.48;;;1.10;80.20;;;;;;2061109;28;20267;-84
2022/03/05 01:59:19;;;;;;;22.13;11.55;;;1.20;80.30;;;;;;2064356;28;20050;-84
2022/03/05 02:00:20;;;;;;;21.75;12.07;;;1.10;80.30;;;;;;2055397;28;20042;-84
2022/03/05 02:01:24;;;;;;;18.65;10.88;;;1.10;80.30;;;;;;2048152;28;20027;-84
2022/03/05 02:02:25;;;;;;;20.63;11.00;;;1.10;80.30;;;;;;2069945;28;20044;-84
2022/03/05 02:03:25;;;;;;;21.08;11.88;;;1.10;80.30;;;;;;2071952;28;20046;-84
2022/03/05 02:04:26;;;;;;;22.92;12.82;;;1.10;80.30;;;;;;2098236;28;20132;-84
2022/03/05 02:05:27;;;;;;;22.88;12.13;;;1.10;80.30;;;;;;2061410;28;20042;-84
2022/03/05 02:06:28;;;;;;;23.05;12.50;;;1.10;80.40;;;;;;2061535;28;20051;-83
2022/03/05 02:07:29;;;;;;;23.63;11.95;;;1.10;80.40;;;;;;2061881;28;20038;-83
2022/03/05 02:08:30;;;;;;;23.00;12.20;;;1.10;80.50;;;;;;2062474;28;20047;-83
2022/03/05 02:09:31;;;;;;;21.55;11.73;;;1.10;80.50;;;;;;2056151;28;20039;-84
2022/03/05 02:10:32;;;;;;;25.00;12.85;;;1.10;80.50;;;;;;2064374;28;20083;-84
2022/03/05 02:11:32;;;;;;;23.77;12.65;;;1.10;80.50;;;;;;2082635;28;20041;-84
2022/03/05 02:12:35;;;;;;;23.45;12.60;;;1.00;80.50;;;;;;2080147;28;20031;-84
2022/03/05 02:13:36;;;;;;;25.38;13.02;;;1.00;80.50;;;;;;2062036;28;20424;-83
2022/03/05 02:14:36;;;;;;;24.90;12.38;;;1.10;80.60;;;;;;2064013;28;20077;-84
2022/03/05 02:15:38;;;;;;;22.58;11.73;;;1.00;80.60;;;;;;2054895;28;20951;-83
2022/03/05 02:16:39;;;;;;;22.30;11.95;;;1.00;80.60;;;;;;2055898;28;20046;-83
2022/03/05 02:17:40;;;;;;;24.58;13.43;;;1.00;80.60;;;;;;2062711;28;20484;-84
2022/03/05 02:18:45;;;;;;;23.35;12.00;;;1.00;80.70;;;;;;2057521;28;20062;-84
2022/03/05 02:19:45;;;;;;;19.55;10.90;;;1.00;80.70;;;;;;2066271;28;20129;-83
2022/03/05 02:20:46;;;;;;;25.83;12.60;;;1.00;80.70;;;;;;2075211;28;20061;-83
2022/03/05 02:21:47;;;;;;;25.05;13.23;;;1.00;80.70;;;;;;2048717;28;20055;-84
2022/03/05 02:22:48;;;;;;;21.75;11.80;;;1.00;80.80;;;;;;2084798;28;20053;-84
2022/03/05 02:23:49;;;;;;;23.67;12.18;;;1.00;80.80;;;;;;2057324;28;20412;-84
2022/03/05 02:24:55;;;;;;;25.20;12.70;;;0.90;80.70;;;;;;2048001;29;20122;-84
2022/03/05 02:25:58;;;;;;;28.00;13.90;;;0.90;80.80;;;;;;2040910;28;20036;-83
2022/03/05 02:27:00;;;;;;;25.30;12.93;;;0.90;80.80;;;;;;2048208;28;20027;-84
2022/03/05 02:28:02;;;;;;;25.05;12.88;;;0.90;80.80;;;;;;2061398;28;20088;-84
2022/03/05 02:29:03;;;;;;;23.80;12.48;;;0.90;80.80;;;;;;2055847;28;20050;-83
2022/03/05 02:30:04;;;;;;;27.92;13.57;;;0.90;80.80;;;;;;2056700;28;20557;-84
2022/03/05 02:31:06;;;;;;;24.08;13.20;;;0.90;80.80;;;;;;2055910;28;20515;-84
2022/03/05 02:32:07;;;;;;;21.70;11.82;;;0.90;80.90;;;;;;2088203;28;20040;-84
2022/03/05 02:33:07;;;;;;;22.08;11.25;;;0.90;80.90;;;;;;2064481;28;20411;-84
2022/03/05 02:34:08;;;;;;;23.00;11.98;;;0.90;80.90;;;;;;2060891;28;20043;-84
2022/03/05 02:35:09;;;;;;;22.50;12.05;;;0.90;80.90;;;;;;2084993;28;20479;-84
2022/03/05 02:36:10;;;;;;;23.10;12.05;;;0.90;81.00;;;;;;2046720;28;20047;-84
2022/03/05 02:37:13;;;;;;;23.75;12.13;;;0.90;81.00;;;;;;2062378;28;20034;-84
2022/03/05 02:38:19;;;;;;;23.40;12.00;;;0.90;81.00;;;;;;2056151;28;20397;-83
2022/03/05 02:39:23;;;;;;;25.00;12.30;;;0.90;81.00;;;;;;2047856;29;20075;-83
2022/03/05 02:40:24;;;;;;;21.40;11.68;;;0.90;81.00;;;;;;2048558;28;20113;-84
2022/03/05 02:41:25;;;;;;;25.13;12.32;;;0.90;81.00;;;;;;2063099;28;20534;-84
2022/03/05 02:42:25;;;;;;;23.52;12.98;;;0.90;81.00;;;;;;2065596;28;20035;-84
2022/03/05 02:43:26;;;;;;;23.33;11.93;;;0.80;81.00;;;;;;2039808;29;20086;-83
2022/03/05 02:44:27;;;;;;;22.23;12.23;;;0.80;81.00;;;;;;2047655;28;20055;-83
2022/03/05 02:45:28;;;;;;;21.85;11.57;;;0.80;81.00;;;;;;2055316;28;20035;-83
2022/03/05 02:46:29;;;;;;;24.30;12.85;;;0.80;81.70;;;;;;2088292;28;20625;-84
2022/03/05 02:47:30;;;;;;;23.83;11.88;;;0.80;81.10;;;;;;2039456;28;20493;-84
2022/03/05 02:48:33;;;;;;;24.00;11.98;;;0.80;81.10;;;;;;2047526;28;20035;-84
2022/03/05 02:49:33;;;;;;;25.52;13.32;;;0.80;81.10;;;;;;2064308;28;20045;-84
2022/03/05 02:50:34;;;;;;;27.48;13.52;;;0.80;81.10;;;;;;2055353;28;20408;-84
2022/03/05 02:51:35;;;;;;;26.10;13.57;;;0.80;81.20;;;;;;2054946;28;20043;-84
2022/03/05 02:52:39;;;;;;;28.15;13.60;;;0.70;81.10;;;;;;2061315;28;20573;-84
2022/03/05 02:53:39;;;;;;;25.45;12.93;;;0.70;81.20;;;;;;2052387;28;20133;-83
2022/03/05 02:54:40;;;;;;;27.67;14.15;;;0.80;81.30;;;;;;2047776;29;20114;-84
2022/03/05 02:55:41;;;;;;;26.70;13.60;;;0.70;81.20;;;;;;2063234;28;20588;-84
2022/03/05 02:56:42;;;;;;;24.77;13.27;;;0.70;81.30;;;;;;2061692;28;20042;-84
2022/03/05 02:57:44;;;;;;;23.73;12.65;;;0.70;81.90;;;;;;2062895;28;20058;-84
2022/03/05 02:58:44;;;;;;;23.98;13.18;;;0.70;81.30;;;;;;2063458;28;20038;-84
2022/03/05 02:59:45;;;;;;;29.65;14.30;;;0.70;81.30;;;;;;2055593;28;20043;-84
2022/03/05 03:00:46;;;;;;;27.38;13.18;;;0.70;81.40;;;;;;2056370;28;20070;-84
2022/03/05 03:01:46;;;;;;;28.17;13.30;;;0.70;81.40;;;;;;2057282;28;20039;-84
2022/03/05 03:02:47;;;;;;;26.98;13.55;;;0.70;81.40;;;;;;2055610;28;20084;-83
2022/03/05 03:03:47;;;;;;;25.80;12.90;;;0.70;81.40;;;;;;2055714;28;20051;-84
2022/03/05 03:04:48;;;;;;;24.83;12.57;;;0.70;81.50;;;;;;2064326;28;20431;-84
2022/03/05 03:05:49;;;;;;;26.08;13.45;;;0.70;81.50;;;;;;2053339;28;20051;-83
2022/03/05 03:06:50;;;;;;;26.75;13.90;;;0.60;81.40;;;;;;2055449;28;20432;-84
2022/03/05 03:07:51;;;;;;;28.33;13.70;;;0.70;81.50;;;;;;2062800;28;20535;-84
2022/03/05 03:08:51;;;;;;;26.10;12.57;;;0.60;81.50;;;;;;2072184;28;20033;-84
2022/03/05 03:09:52;;;;;;;28.15;14.15;;;0.70;81.60;;;;;;2081062;28;20403;-84
2022/03/05 03:10:53;;;;;;;24.33;13.00;;;0.60;81.50;;;;;;2047663;28;20102;-84
2022/03/05 03:11:53;;;;;;;24.30;13.05;;;0.60;81.50;;;;;;2047760;28;20608;-84
2022/03/05 03:12:54;;;;;;;25.80;13.27;;;0.60;81.50;;;;;;2039729;28;20131;-83
2022/03/05 03:13:55;;;;;;;26.85;13.82;;;0.60;81.50;;;;;;2039896;29;20039;-84
2022/03/05 03:14:55;;;;;;;28.55;14.27;;;0.60;81.60;;;;;;2049563;28;20097;-84
2022/03/05 03:15:56;;;;;;;27.83;13.77;;;0.60;81.60;;;;;;2055549;28;20031;-83
2022/03/05 03:16:57;;;;;;;29.33;14.55;;;0.60;81.70;;;;;;2087103;28;20545;-84
2022/03/05 03:17:57;;;;;;;28.42;14.10;;;0.60;82.30;;;;;;2072957;28;20125;-84
2022/03/05 03:18:58;;;;;;;28.77;15.15;;;0.60;81.80;;;;;;2064591;28;20598;-84
2022/03/05 03:19:58;;;;;;;28.95;15.07;;;0.50;81.70;;;;;;2042607;29;20433;-84
2022/03/05 03:20:59;;;;;;;28.40;14.75;;;0.50;81.80;;;;;;2047000;29;20075;-84
2022/03/05 03:22:00;;;;;;;27.95;14.30;;;0.50;81.70;;;;;;2055593;28;20536;-84
2022/03/05 03:23:01;;;;;;;30.08;14.85;;;0.50;81.80;;;;;;2062982;28;20050;-84
2022/03/05 03:24:02;;;;;;;27.88;13.98;;;0.50;81.80;;;;;;2063351;28;20046;-83
2022/03/05 03:25:03;;;;;;;28.95;14.30;;;0.50;81.80;;;;;;2062819;28;20034;-84
2022/03/05 03:26:04;;;;;;;28.13;14.55;;;0.50;81.90;;;;;;2060771;28;20046;-84
2022/03/05 03:27:04;;;;;;;27.75;13.85;;;0.50;81.90;;;;;;2058431;28;20136;-84
2022/03/05 03:28:06;;;;;;;27.90;13.93;;;0.50;81.90;;;;;;2064205;28;20408;-84
2022/03/05 03:29:07;;;;;;;25.83;14.13;;;0.50;81.90;;;;;;2063919;28;20082;-83
2022/03/05 03:30:09;;;;;;;27.95;14.63;;;0.50;81.90;;;;;;2064144;28;20034;-84
2022/03/05 03:31:10;;;;;;;28.83;14.13;;;0.50;81.90;;;;;;2055498;28;20062;-84
2022/03/05 03:32:10;;;;;;;27.73;13.65;;;0.40;81.90;;;;;;2047521;29;20039;-83
2022/03/05 03:33:11;;;;;;;29.23;15.02;;;0.40;81.90;;;;;;2055992;28;20066;-83
2022/03/05 03:34:12;;;;;;;26.95;13.50;;;0.50;82.00;;;;;;2064382;28;20496;-83
2022/03/05 03:35:14;;;;;;;23.02;13.10;;;0.40;82.00;;;;;;2055578;28;20050;-83
2022/03/05 03:36:15;;;;;;;27.40;13.98;;;0.40;82.00;;;;;;2065512;28;20050;-83
2022/03/05 03:37:16;;;;;;;29.75;14.55;;;0.40;82.00;;;;;;2057163;28;20507;-84
2022/03/05 03:38:17;;;;;;;28.60;13.98;;;0.40;82.00;;;;;;2064329;28;20378;-84
2022/03/05 03:39:17;;;;;;;30.50;14.57;;;0.40;82.00;;;;;;2105378;28;20043;-84
2022/03/05 03:40:19;;;;;;;28.45;14.48;;;0.40;82.00;;;;;;2105692;28;20036;-84
2022/03/05 03:41:19;;;;;;;28.45;13.60;;;0.40;82.00;;;;;;2097299;28;20037;-83
2022/03/05 03:42:20;;;;;;;28.02;14.30;;;0.40;82.10;;;;;;2097402;28;20510;-83
2022/03/05 03:43:21;;;;;;;26.30;13.60;;;0.40;82.10;;;;;;2064129;28;20049;-83
2022/03/05 03:44:21;;;;;;;27.48;13.27;;;0.40;82.10;;;;;;2100240;28;20078;-84
2022/03/05 03:45:22;;;;;;;27.95;13.68;;;0.40;82.10;;;;;;2060648;28;20043;-84
2022/03/05 03:46:23;;;;;;;24.17;13.15;;;0.40;82.10;;;;;;2063675;28;20129;-83
2022/03/05 03:47:24;;;;;;;28.80;13.73;;;0.40;82.10;;;;;;2062104;28;20141;-84
2022/03/05 03:48:25;;;;;;;28.08;13.52;;;0.40;82.10;;;;;;2062465;28;20040;-83
2022/03/05 03:49:25;;;;;;;29.10;14.18;;;0.40;82.10;;;;;;2064097;28;20056;-83
2022/03/05 03:50:26;;;;;;;26.65;13.57;;;0.30;82.10;;;;;;2055000;28;20527;-83
2022/03/05 03:51:26;;;;;;;29.35;14.05;;;0.30;82.10;;;;;;2089088;28;20041;-83
2022/03/05 03:52:27;;;;;;;26.98;14.13;;;0.40;82.20;;;;;;2097253;28;20429;-83
2022/03/05 03:53:28;;;;;;;24.85;12.63;;;0.30;82.20;;;;;;2055908;28;20100;-84
2022/03/05 03:54:28;;;;;;;27.08;13.35;;;0.30;82.20;;;;;;2055824;28;20513;-83
2022/03/05 03:55:29;;;;;;;26.98;13.45;;;0.30;82.20;;;;;;2055866;28;20043;-84
2022/03/05 03:56:30;;;;;;;26.42;14.00;;;0.30;82.20;;;;;;2056790;28;20057;-84
2022/03/05 03:57:30;;;;;;;30.73;14.95;;;0.30;82.30;;;;;;2065738;28;20410;-83
2022/03/05 03:58:31;;;;;;;26.30;13.68;;;0.30;82.30;;;;;;2055414;28;20188;-83
2022/03/05 03:59:32;;;;;;;26.48;13.23;;;0.30;82.30;;;;;;2047308;29;20116;-84
2022/03/05 04:00:32;;;;;;;29.58;14.82;;;0.30;82.30;;;;;;2086819;28;20047;-84
2022/03/05 04:01:33;;;;;;;27.50;14.18;;;0.30;82.30;;;;;;2073663;28;20560;-84
2022/03/05 04:02:34;;;;;;;32.45;15.45;;;0.30;82.30;;;;;;2048242;28;20087;-83
2022/03/05 04:03:34;;;;;;;32.17;15.13;;;0.30;82.40;;;;;;2064824;28;20038;-84
2022/03/05 04:04:35;;;;;;;31.13;15.25;;;0.30;82.50;;;;;;2054611;28;20077;-83
2022/03/05 04:05:36;;;;;;;30.20;15.50;;;0.20;83.00;;;;;;2049833;28;20050;-84
2022/03/05 04:09:15;;;;;;;27.92;13.75;;;0.20;82.40;;;;;;2065331;28;20058;-83
2022/03/05 04:10:16;;;;;;;32.78;15.63;;;0.30;82.40;;;;;;2065928;28;20070;-83
2022/03/05 04:11:18;;;;;;;26.27;13.95;;;0.20;82.30;;;;;;2056717;28;20128;-84
2022/03/05 04:12:19;;;;;;;31.38;15.23;;;0.20;82.40;;;;;;2057971;28;20080;-84
2022/03/05 04:13:19;;;;;;;33.78;16.30;;;0.20;82.40;;;;;;2056711;28;20035;-84
2022/03/05 04:14:20;;;;;;;32.17;16.00;;;0.20;82.50;;;;;;2048045;28;20126;-84
2022/03/05 04:15:20;;;;;;;30.85;15.38;;;0.20;82.50;;;;;;2048496;28;20105;-84
2022/03/05 04:16:21;;;;;;;32.13;15.23;;;0.20;82.50;;;;;;2048561;28;20039;-83
2022/03/05 04:17:22;;;;;;;31.35;15.73;;;0.10;82.50;;;;;;2056299;28;20151;-84
2022/03/05 04:18:23;;;;;;;31.80;15.73;;;0.20;82.60;;;;;;2048335;28;20382;-83
2022/03/05 04:19:23;;;;;;;30.98;15.45;;;0.10;82.60;;;;;;2048724;29;20058;-84
2022/03/05 04:20:24;;;;;;;33.60;15.95;;;0.20;82.60;;;;;;2067668;28;20473;-83
2022/03/05 04:21:25;;;;;;;31.45;15.20;;;0.20;82.70;;;;;;2060977;28;20121;-83
2022/03/05 04:22:27;;;;;;;32.35;15.73;;;0.10;83.30;;;;;;2065129;28;20069;-83
2022/03/05 04:23:28;;;;;;;33.13;15.52;;;0.10;82.70;;;;;;2056734;28;20108;-84
2022/03/05 04:24:28;;;;;;;30.77;15.30;;;0.10;82.70;;;;;;2056301;28;20416;-84
2022/03/05 04:25:29;;;;;;;33.00;15.45;;;0.20;82.70;;;;;;2064955;28;20069;-84
2022/03/05 04:26:30;;;;;;;30.92;15.18;;;0.20;82.70;;;;;;2065343;28;20478;-84
2022/03/05 04:27:31;;;;;;;27.73;14.65;;;0.10;82.70;;;;;;2066808;28;20035;-84
2022/03/05 04:28:31;;;;;;;29.42;14.48;;;0.10;82.70;;;;;;2064460;28;20038;-84
2022/03/05 04:29:33;;;;;;;31.10;14.98;;;0.10;82.70;;;;;;2056106;28;20093;-84
2022/03/05 04:30:34;;;;;;;27.80;13.73;;;0.10;82.70;;;;;;2056520;28;20101;-84
2022/03/05 04:31:35;;;;;;;32.28;15.45;;;0.10;82.70;;;;;;2052924;28;20046;-84
2022/03/05 04:32:35;;;;;;;32.25;14.95;;;0.10;82.70;;;;;;2048646;29;20458;-84
2022/03/05 04:33:36;;;;;;;30.45;14.55;;;0.10;82.70;;;;;;2056987;28;20043;-84
2022/03/05 04:34:36;;;;;;;29.90;14.55;;;0.10;82.70;;;;;;2091580;28;20029;-84
2022/03/05 04:35:38;;;;;;;30.67;14.50;;;0.10;82.70;;;;;;2098844;28;20045;-84
2022/03/05 04:36:38;;;;;;;27.17;13.27;;;0.10;82.70;;;;;;2056556;28;20063;-84
2022/03/05 04:37:39;;;;;;;31.02;14.88;;;0.10;82.70;;;;;;2047835;28;20125;-84
2022/03/05 04:38:40;;;;;;;30.13;14.70;;;0.10;83.10;;;;;;2048399;29;20059;-84
2022/03/05 04:39:40;;;;;;;30.38;15.60;;;0.10;82.70;;;;;;2064981;28;20034;-85
2022/03/05 04:40:41;;;;;;;28.02;14.15;;;0.10;82.80;;;;;;2065311;28;20031;-84
2022/03/05 04:41:42;;;;;;;25.70;12.95;;;0.10;82.80;;;;;;2060594;28;20069;-84
2022/03/05 04:42:42;;;;;;;30.33;14.55;;;0.10;82.80;;;;;;2055743;28;20043;-84
2022/03/05 04:43:43;;;;;;;29.42;14.70;;;0.10;82.80;;;;;;2056933;28;20035;-84
2022/03/05 04:44:44;;;;;;;30.30;15.23;;;0.10;82.80;;;;;;2058490;28;20061;-84
2022/03/05 04:45:44;;;;;;;30.63;14.13;;;0.10;82.80;;;;;;2056460;28;20042;-84
2022/03/05 04:46:45;;;;;;;30.15;15.05;;;0.10;82.90;;;;;;2072966;28;20053;-84
2022/03/05 04:47:46;;;;;;;30.73;14.32;;;0.10;82.90;;;;;;2077816;28;23522;-84
2022/03/05 04:48:46;;;;;;;30.40;15.15;;;0.00;82.80;;;;;;2054689;28;20035;-85
2022/03/05 04:49:48;;;;;;;33.70;16.02;;;0.10;82.90;;;;;;2065152;28;20050;-84
2022/03/05 04:50:49;;;;;;;31.33;15.15;;;0.10;82.90;;;;;;2064845;28;20038;-84
2022/03/05 04:51:50;;;;;;;30.42;14.00;;;0.10;82.90;;;;;;2063242;28;20134;-84
2022/03/05 04:52:51;;;;;;;30.23;14.05;;;0.10;82.90;;;;;;2065003;28;20042;-84
2022/03/05 04:53:52;;;;;;;32.60;15.27;;;0.10;82.90;;;;;;2055716;28;20378;-84
2022/03/05 04:54:52;;;;;;;32.67;15.38;;;0.10;82.90;;;;;;2056319;28;20070;-84
2022/03/05 04:55:53;;;;;;;31.80;15.40;;;0.10;82.90;;;;;;2064985;28;20041;-84
2022/03/05 04:56:53;;;;;;;32.97;15.00;;;0.10;83.00;;;;;;2056662;28;20560;-84
2022/03/05 04:57:54;;;;;;;31.42;14.95;;;0.10;82.90;;;;;;2052813;28;20051;-83
2022/03/05 04:58:55;;;;;;;30.55;15.10;;;0.00;83.00;;;;;;2088804;28;20095;-84
2022/03/05 04:59:55;;;;;;;27.70;14.60;;;0.00;82.90;;;;;;2064960;28;20112;-84
2022/03/05 05:00:56;;;;;;;31.42;15.35;;;0.00;82.90;;;;;;2067100;28;20480;-84
2022/03/05 05:01:57;;;;;;;30.77;14.75;;;0.00;82.90;;;;;;2055273;28;20038;-84
2022/03/05 05:02:57;;;;;;;31.48;14.88;;;0.10;83.00;;;;;;2048467;28;20036;-84
2022/03/05 05:03:58;;;;;;;29.45;14.18;;;0.00;82.90;;;;;;2054808;28;20043;-84
2022/03/05 05:04:59;;;;;;;28.73;14.02;;;0.00;82.90;;;;;;2055814;28;20479;-84
2022/03/05 05:06:00;;;;;;;30.17;14.77;;;0.10;83.50;;;;;;2056282;28;20108;-84
2022/03/05 05:07:00;;;;;;;30.98;14.77;;;0.00;82.90;;;;;;2056509;28;20035;-84
2022/03/05 05:08:01;;;;;;;30.98;14.68;;;0.00;82.80;;;;;;2064527;28;20047;-84
2022/03/05 05:09:02;;;;;;;32.30;15.73;;;0.10;83.00;;;;;;2093906;28;20037;-84
2022/03/05 05:10:04;;;;;;;31.75;15.50;;;0.00;82.90;;;;;;2062557;28;20130;-84
2022/03/05 05:11:05;;;;;;;28.17;14.93;;;0.00;82.90;;;;;;2056262;28;20062;-84
2022/03/05 05:12:07;;;;;;;31.83;15.88;;;0.00;82.90;;;;;;2056165;28;20035;-84
2022/03/05 05:13:08;;;;;;;32.72;16.20;;;0.00;83.00;;;;;;2055773;28;20532;-84
2022/03/05 05:14:09;;;;;;;30.55;14.98;;;0.00;83.00;;;;;;2048216;28;20035;-84
2022/03/05 05:15:10;;;;;;;32.47;14.80;;;0.00;83.00;;;;;;2047007;28;20062;-84
2022/03/05 05:16:10;;;;;;;33.80;15.43;;;0.00;83.00;;;;;;2047824;28;20129;-84